Time,TemperatureF,DewpointF,PressureIn,WindDirection,WindDirectionDegrees,WindSpeedMPH,WindSpeedGustMPH,Humidity,HourlyPrecipIn,Conditions,Clouds,dailyrainin,SoftwareType,DateUTC
2013-04-25 00:00:00,58.8,47.9,0.00,SW,223,0.0,5.0,67,0.00,,,0.00,Weather View 32 v70,2013-04-25 04:00:00,
2013-04-25 00:19:00,59.2,47.8,0.00,WSW,239,3.0,5.0,66,0.00,,,0.00,Weather View 32 v70,2013-04-25 04:19:00,
2013-04-25 00:30:00,59.2,47.8,0.00,SW,226,0.0,5.0,66,0.00,,,0.00,Weather View 32 v70,2013-04-25 04:30:00,
2013-04-25 00:45:00,59.2,48.2,0.00,South,185,3.0,5.0,67,0.00,,,0.00,Weather View 32 v70,2013-04-25 04:45:00,
2013-04-25 01:00:00,58.8,47.5,0.00,WNW,284,8.0,13.0,66,0.00,,,0.00,Weather View 32 v70,2013-04-25 05:00:00,
2013-04-25 01:15:00,59.4,42.2,0.00,SW,231,4.0,13.0,53,0.00,,,0.00,Weather View 32 v70,2013-04-25 05:15:00,
2013-04-25 01:30:00,58.8,39.1,0.00,North,357,5.0,13.0,48,0.00,,,0.00,Weather View 32 v70,2013-04-25 05:30:00,
2013-04-25 01:45:00,58.3,37.5,0.00,NW,307,4.0,13.0,46,0.00,,,0.00,Weather View 32 v70,2013-04-25 05:45:00,
2013-04-25 02:00:00,57.7,37.1,0.00,West,275,8.0,13.0,46,0.00,,,0.00,Weather View 32 v70,2013-04-25 06:00:00,
2013-04-25 02:15:00,57.4,36.7,0.00,WNW,288,4.0,13.0,46,0.00,,,0.00,Weather View 32 v70,2013-04-25 06:15:00,
2013-04-25 02:20:00,57.4,36.7,0.00,WNW,288,4.0,13.0,46,0.00,,,0.00,Weather View 32 v70,2013-04-25 06:20:00,
2013-04-25 02:30:00,57.2,37.1,0.00,SW,235,4.0,13.0,47,0.00,,,0.00,Weather View 32 v70,2013-04-25 06:30:00,
2013-04-25 02:45:00,56.8,37.3,0.00,WNW,289,6.0,11.0,48,0.00,,,0.00,Weather View 32 v70,2013-04-25 06:45:00,
2013-04-25 03:00:00,55.4,31.4,0.00,NNW,336,3.0,15.0,40,0.00,,,0.00,Weather View 32 v70,2013-04-25 07:00:00,
2013-04-25 03:15:00,53.8,31.2,0.00,North,357,5.0,15.0,42,0.00,,,0.00,Weather View 32 v70,2013-04-25 07:15:00,
2013-04-25 03:20:00,53.8,31.2,0.00,North,357,5.0,15.0,42,0.00,,,0.00,Weather View 32 v70,2013-04-25 07:20:00,
2013-04-25 03:30:00,52.5,26.9,0.00,NNW,329,8.0,15.0,37,0.00,,,0.00,Weather View 32 v70,2013-04-25 07:30:00,
2013-04-25 03:45:00,51.1,25.0,0.00,WNW,300,3.0,17.0,36,0.00,,,0.00,Weather View 32 v70,2013-04-25 07:45:00,
2013-04-25 04:00:00,50.4,25.0,0.00,WNW,291,3.0,17.0,37,0.00,,,0.00,Weather View 32 v70,2013-04-25 08:00:00,
2013-04-25 04:15:00,50.4,25.7,0.00,WNW,285,5.0,17.0,38,0.00,,,0.00,Weather View 32 v70,2013-04-25 08:15:00,
2013-04-25 04:21:00,50.4,25.7,0.00,WNW,285,5.0,17.0,38,0.00,,,0.00,Weather View 32 v70,2013-04-25 08:21:00,
2013-04-25 04:30:00,50.2,25.5,0.00,NNW,344,4.0,17.0,38,0.00,,,0.00,Weather View 32 v70,2013-04-25 08:30:00,
2013-04-25 04:45:00,49.6,25.0,0.00,NNW,343,4.0,12.0,38,0.00,,,0.00,Weather View 32 v70,2013-04-25 08:45:00,
2013-04-25 05:00:00,49.1,24.5,0.00,NNE,30,6.0,13.0,38,0.00,,,0.00,Weather View 32 v70,2013-04-25 09:00:00,
2013-04-25 05:15:00,47.8,23.4,0.00,NW,310,11.0,15.0,38,0.00,,,0.00,Weather View 32 v70,2013-04-25 09:15:00,
2013-04-25 05:21:00,47.8,23.4,0.00,NW,310,11.0,15.0,38,0.00,,,0.00,Weather View 32 v70,2013-04-25 09:21:00,
2013-04-25 05:30:00,46.9,22.6,0.00,WSW,258,5.0,17.0,38,0.00,,,0.00,Weather View 32 v70,2013-04-25 09:30:00,
2013-04-25 05:45:00,46.8,22.5,0.00,WSW,245,6.0,17.0,38,0.00,,,0.00,Weather View 32 v70,2013-04-25 09:45:00,
2013-04-25 06:00:00,45.9,22.3,0.00,WNW,302,15.0,17.0,39,0.00,,,0.00,Weather View 32 v70,2013-04-25 10:00:00,
2013-04-25 06:22:00,45.3,23.0,0.00,North,8,5.0,17.0,41,0.00,,,0.00,Weather View 32 v70,2013-04-25 10:22:00,
2013-04-25 06:30:00,44.8,23.1,0.00,North,353,6.0,15.0,42,0.00,,,0.00,Weather View 32 v70,2013-04-25 10:30:00,
2013-04-25 06:45:00,44.6,22.9,0.00,NNW,333,6.0,15.0,42,0.00,,,0.00,Weather View 32 v70,2013-04-25 10:45:00,
2013-04-25 07:00:00,44.8,22.5,0.00,NNE,21,5.0,15.0,41,0.00,,,0.00,Weather View 32 v70,2013-04-25 11:00:00,
2013-04-25 07:15:00,44.8,21.9,0.00,North,5,4.0,15.0,40,0.00,,,0.00,Weather View 32 v70,2013-04-25 11:15:00,
2013-04-25 07:23:00,44.8,21.9,0.00,North,5,4.0,15.0,40,0.00,,,0.00,Weather View 32 v70,2013-04-25 11:23:00,
2013-04-25 07:30:00,45.1,22.2,0.00,North,357,8.0,15.0,40,0.00,,,0.00,Weather View 32 v70,2013-04-25 11:30:00,
2013-04-25 07:45:00,45.3,22.4,0.00,WNW,295,4.0,13.0,40,0.00,,,0.00,Weather View 32 v70,2013-04-25 11:45:00,
2013-04-25 08:15:00,46.4,21.5,0.00,North,1,3.0,13.0,37,0.00,,,0.00,Weather View 32 v70,2013-04-25 12:15:00,
2013-04-25 08:23:00,46.4,21.5,0.00,North,1,3.0,13.0,37,0.00,,,0.00,Weather View 32 v70,2013-04-25 12:23:00,
2013-04-25 08:30:00,46.9,20.7,0.00,SW,225,12.0,12.0,35,0.00,,,0.00,Weather View 32 v70,2013-04-25 12:30:00,
2013-04-25 08:45:00,47.7,19.9,0.00,WNW,297,6.0,12.0,33,0.00,,,0.00,Weather View 32 v70,2013-04-25 12:45:00,
2013-04-25 09:00:00,48.7,20.1,0.00,NNW,333,5.0,16.0,32,0.00,,,0.00,Weather View 32 v70,2013-04-25 13:00:00,
2013-04-25 09:24:00,49.8,19.6,0.00,WNW,289,3.0,16.0,30,0.00,,,0.00,Weather View 32 v70,2013-04-25 13:24:00,
2013-04-25 09:30:00,51.8,20.5,0.00,West,268,8.0,16.0,29,0.00,,,0.00,Weather View 32 v70,2013-04-25 13:30:00,
2013-04-25 09:45:00,53.2,20.1,0.00,North,0,5.0,16.0,27,0.00,,,0.00,Weather View 32 v70,2013-04-25 13:45:00,
2013-04-25 10:00:00,54.3,20.1,0.00,NNW,336,6.0,14.0,26,0.00,,,0.00,Weather View 32 v70,2013-04-25 14:00:00,
2013-04-25 10:15:00,56.8,22.2,0.00,NNW,330,6.0,14.0,26,0.00,,,0.00,Weather View 32 v70,2013-04-25 14:15:00,
2013-04-25 10:24:00,56.8,22.2,0.00,NNW,330,6.0,14.0,26,0.00,,,0.00,Weather View 32 v70,2013-04-25 14:24:00,
2013-04-25 10:30:00,55.8,20.4,0.00,North,357,2.0,13.0,25,0.00,,,0.00,Weather View 32 v70,2013-04-25 14:30:00,
2013-04-25 10:45:00,56.8,21.3,0.00,ENE,69,4.0,13.0,25,0.00,,,0.00,Weather View 32 v70,2013-04-25 14:45:00,
2013-04-25 11:00:00,58.5,22.7,0.00,WNW,283,3.0,11.0,25,0.00,,,0.00,Weather View 32 v70,2013-04-25 15:00:00,
2013-04-25 11:15:00,56.5,21.0,0.00,WSW,251,6.0,11.0,25,0.00,,,0.00,Weather View 32 v70,2013-04-25 15:15:00,
2013-04-25 11:30:00,58.3,21.6,0.00,NNE,26,0.0,11.0,24,0.00,,,0.00,Weather View 32 v70,2013-04-25 15:30:00,
2013-04-25 12:15:00,62.1,21.6,0.00,West,268,8.0,11.0,21,0.00,,,0.00,Weather View 32 v70,2013-04-25 16:15:00,
2013-04-25 12:30:00,63.0,22.3,0.00,North,10,8.0,11.0,21,0.00,,,0.00,Weather View 32 v70,2013-04-25 16:30:00,
2013-04-25 12:45:00,63.0,18.7,0.00,NNW,335,3.0,11.0,18,0.00,,,0.00,Weather View 32 v70,2013-04-25 16:45:00,
2013-04-25 13:00:00,64.9,22.8,0.00,North,6,5.0,11.0,20,0.00,,,0.00,Weather View 32 v70,2013-04-25 17:00:00,
2013-04-25 13:15:00,66.0,21.2,0.00,NNW,330,2.0,11.0,18,0.00,,,0.00,Weather View 32 v70,2013-04-25 17:15:00,
2013-04-25 14:15:00,66.9,17.7,0.00,SW,233,6.0,11.0,15,0.00,,,0.00,Weather View 32 v70,2013-04-25 18:15:00,
2013-04-25 14:30:00,68.0,18.5,0.00,WNW,286,8.0,11.0,15,0.00,,,0.00,Weather View 32 v70,2013-04-25 18:30:00,
2013-04-25 14:45:00,68.9,19.2,0.00,WSW,246,7.0,11.0,15,0.00,,,0.00,Weather View 32 v70,2013-04-25 18:45:00,
2013-04-25 15:15:00,67.6,18.2,0.00,NNE,15,3.0,8.0,15,0.00,,,0.00,Weather View 32 v70,2013-04-25 19:15:00,
2013-04-25 15:30:00,67.5,18.1,0.00,NNW,338,4.0,8.0,15,0.00,,,0.00,Weather View 32 v70,2013-04-25 19:30:00,
2013-04-25 15:45:00,69.6,19.8,0.00,NNE,23,4.0,8.0,15,0.00,,,0.00,Weather View 32 v70,2013-04-25 19:45:00,
2013-04-25 16:00:00,69.3,19.5,0.00,NNW,343,4.0,9.0,15,0.00,,,0.00,Weather View 32 v70,2013-04-25 20:00:00,
2013-04-25 16:15:00,70.0,18.5,0.00,WNW,303,2.0,9.0,14,0.00,,,0.00,Weather View 32 v70,2013-04-25 20:15:00,
2013-04-25 16:30:00,71.4,19.6,0.00,NNE,26,6.0,9.0,14,0.00,,,0.00,Weather View 32 v70,2013-04-25 20:30:00,
2013-04-25 16:45:00,72.3,20.3,0.00,North,9,4.0,9.0,14,0.00,,,0.00,Weather View 32 v70,2013-04-25 20:45:00,
2013-04-25 17:00:00,73.6,19.6,0.00,East,88,3.0,9.0,13,0.00,,,0.00,Weather View 32 v70,2013-04-25 21:00:00,
2013-04-25 17:15:00,70.5,18.9,0.00,SW,229,4.0,8.0,14,0.00,,,0.00,Weather View 32 v70,2013-04-25 21:15:00,
2013-04-25 17:30:00,71.8,19.9,0.00,NNW,331,0.0,9.0,14,0.00,,,0.00,Weather View 32 v70,2013-04-25 21:30:00,
2013-04-25 17:45:00,72.0,20.1,0.00,WNW,303,0.0,9.0,14,0.00,,,0.00,Weather View 32 v70,2013-04-25 21:45:00,
2013-04-25 18:00:00,73.9,19.9,0.00,NW,315,0.0,9.0,13,0.00,,,0.00,Weather View 32 v70,2013-04-25 22:00:00,
2013-04-25 18:15:00,72.1,20.2,0.00,NE,41,3.0,9.0,14,0.00,,,0.00,Weather View 32 v70,2013-04-25 22:15:00,
2013-04-25 18:30:00,69.8,18.4,0.00,NW,305,0.0,6.0,14,0.00,,,0.00,Weather View 32 v70,2013-04-25 22:30:00,
2013-04-25 18:45:00,67.3,18.0,0.00,WSW,257,0.0,6.0,15,0.00,,,0.00,Weather View 32 v70,2013-04-25 22:45:00,
2013-04-25 19:00:00,65.5,16.5,0.00,SW,229,0.0,6.0,15,0.00,,,0.00,Weather View 32 v70,2013-04-25 23:00:00,
2013-04-25 19:15:00,64.2,17.0,0.00,WSW,242,0.0,6.0,16,0.00,,,0.00,Weather View 32 v70,2013-04-25 23:15:00,
2013-04-25 19:30:00,63.3,16.3,0.00,WSW,241,0.0,4.0,16,0.00,,,0.00,Weather View 32 v70,2013-04-25 23:30:00,
2013-04-25 19:45:00,61.9,15.1,0.00,WSW,241,0.0,4.0,16,0.00,,,0.00,Weather View 32 v70,2013-04-25 23:45:00,
2013-04-25 20:00:00,61.0,14.4,0.00,WSW,241,0.0,0.0,16,0.00,,,0.00,Weather View 32 v70,2013-04-26 00:00:00,
2013-04-25 20:15:00,59.9,14.9,0.00,WSW,241,0.0,0.0,17,0.00,,,0.00,Weather View 32 v70,2013-04-26 00:15:00,
2013-04-25 20:30:00,58.5,13.7,0.00,SSE,149,5.0,6.0,17,0.00,,,0.00,Weather View 32 v70,2013-04-26 00:30:00,
2013-04-25 20:45:00,57.6,13.0,0.00,South,186,4.0,6.0,17,0.00,,,0.00,Weather View 32 v70,2013-04-26 00:45:00,
2013-04-25 21:00:00,57.2,15.2,0.00,SSW,198,3.0,6.0,19,0.00,,,0.00,Weather View 32 v70,2013-04-26 01:00:00,
2013-04-25 21:15:00,57.0,16.3,0.00,SW,216,4.0,6.0,20,0.00,,,0.00,Weather View 32 v70,2013-04-26 01:15:00,
2013-04-25 21:30:00,56.7,16.0,0.00,SW,220,0.0,6.0,20,0.00,,,0.00,Weather View 32 v70,2013-04-26 01:30:00,
2013-04-25 21:45:00,56.7,16.0,0.00,SSW,209,2.0,4.0,20,0.00,,,0.00,Weather View 32 v70,2013-04-26 01:45:00,
2013-04-25 22:00:00,56.1,17.7,0.00,SSW,209,0.0,4.0,22,0.00,,,0.00,Weather View 32 v70,2013-04-26 02:00:00,
2013-04-25 22:15:00,55.4,17.1,0.00,SSW,209,0.0,4.0,22,0.00,,,0.00,Weather View 32 v70,2013-04-26 02:15:00,
2013-04-25 22:30:00,54.9,20.6,0.00,SSW,209,0.0,4.0,26,0.00,,,0.00,Weather View 32 v70,2013-04-26 02:30:00,
2013-04-25 22:45:00,54.1,19.9,0.00,SSW,209,0.0,3.0,26,0.00,,,0.00,Weather View 32 v70,2013-04-26 02:45:00,
2013-04-25 23:00:00,53.6,19.5,0.00,WNW,284,0.0,0.0,26,0.00,,,0.00,Weather View 32 v70,2013-04-26 03:00:00,
2013-04-25 23:15:00,53.4,19.3,0.00,WNW,284,0.0,0.0,26,0.00,,,0.00,Weather View 32 v70,2013-04-26 03:15:00,
2013-04-25 23:30:00,52.9,18.9,0.00,WSW,250,0.0,3.0,26,0.00,,,0.00,Weather View 32 v70,2013-04-26 03:30:00,
2013-04-25 23:45:00,52.9,19.8,0.00,WSW,245,0.0,3.0,27,0.00,,,0.00,Weather View 32 v70,2013-04-26 03:45:00,